Airfield :
LOGIN :

Register | Disclaimer

   EN    FR    IT 

 










Legend :    VFR   Marginal VFR   IFR   Intensive IFR   Very Intensive IFR
Visi :
Ceiling :
>= 8 km
>= 3000ft
5 to 8 km
1000 to 3000 ft
1500m to 5 km
500 to 1000 ft
800 to 1500m
200 to 500 ft
< 800m
< 200 ft
Symbols :   Thunderstorms  Fog  Heavy snow  Heavy precipitations  Wind > 20 kt
SIGMETs :     Misc.  Thunderstorms  Icing  Turbulence  Mountain Waves  Volcanic Ashes







- Airport Elevation : 72 ft
- IATA code : UDE


EHVK - Volkel Airbase

CURRENT METAR :
  • 222125Z AUTO 08005KT 050V150 9999 BKN210 05/02 Q1014 BLU

EXPIRED METARs :
  • 222055Z AUTO 08004KT 9999 BKN220 06/02 Q1014 BLU
  • 222025Z AUTO 10004KT 9999 FEW064 OVC220 06/02 Q1014 BLU
  • 221955Z AUTO 10004KT 9999 BKN230 06/01 Q1014 BLU
  • 221925Z AUTO 12004KT 9999 SCT260 07/02 Q1013 BLU
  • 221855Z AUTO 12005KT 9999 FEW370 08/02 Q1013 BLU

TAF TAF EHVK
Valid from the 22 at 14:00 until the 23 at 02:00 UTC


221357Z 2214/2302 13010KT CAVOK
BECMG 2217/2219 09007KT
No reported NOTAMs for that airfield.



MET'MAP, your aeronautical weather chart ! - Copyright ORBIFLY December 2007 - Disclaimer

ORBIFLY MET'MAP TEAM :

Programming & Development : Alexandra Zaïnal
Concept & Development : Baudouin d'Aumeries
Co-Development & Prog : Marc-Olivier Méhu
Technical & hardware support : Manuel Goepfert

Contact : metmap@orbifly.com




SOURCES & CREDITS :

   NOAA